Time,TemperatureF,DewpointF,PressureIn,WindDirection,WindDirectionDegrees,WindSpeedMPH,WindSpeedGustMPH,Humidity,HourlyPrecipIn,Conditions,Clouds,dailyrainin,SoftwareType,DateUTC
2013-07-24 00:04:00,48.7,39.0,30.03,SW,218,1.5,3.6,69,0.00,,,0.00,WSDL version 420,2013-07-23 14:04:00,
2013-07-24 00:09:00,48.6,38.9,30.03,NW,304,1.5,3.1,69,-99.99,,,-99.99,WSDL version 420,2013-07-23 14:09:00,
2013-07-24 00:14:00,48.4,38.8,30.03,SE,135,1.3,2.9,70,0.00,,,0.00,WSDL version 420,2013-07-23 14:14:00,
2013-07-24 00:19:00,48.3,38.9,30.03,West,281,1.6,4.5,70,0.00,,,0.00,WSDL version 420,2013-07-23 14:19:00,
2013-07-24 00:24:00,48.5,38.9,30.03,SSW,193,0.4,4.5,69,0.00,,,0.00,WSDL version 420,2013-07-23 14:24:00,
2013-07-24 00:29:00,48.1,38.6,30.03,South,177,0.8,3.8,70,-99.99,,,-99.99,WSDL version 420,2013-07-23 14:29:00,
2013-07-24 00:34:00,48.0,38.7,30.03,West,273,0.0,3.8,70,0.00,,,0.00,WSDL version 420,2013-07-23 14:34:00,
2013-07-24 00:39:00,47.8,38.5,30.03,West,262,0.1,2.2,70,0.00,,,0.00,WSDL version 420,2013-07-23 14:39:00,
2013-07-24 00:44:00,47.7,38.6,30.03,East,93,1.1,2.5,71,-99.99,,,-99.99,WSDL version 420,2013-07-23 14:44:00,
2013-07-24 00:49:00,47.5,38.7,30.03,WNW,289,0.9,2.7,72,0.00,,,0.00,WSDL version 420,2013-07-23 14:49:00,
2013-07-24 00:54:00,47.6,39.0,30.03,WSW,239,0.8,3.1,72,-99.99,,,-99.99,WSDL version 420,2013-07-23 14:54:00,
2013-07-24 00:59:00,47.6,39.1,30.03,SSE,167,1.0,3.4,72,-99.99,,,-99.99,WSDL version 420,2013-07-23 14:59:00,
2013-07-24 01:04:00,47.8,39.3,30.03,West,276,1.3,3.4,72,-99.99,,,-99.99,WSDL version 420,2013-07-23 15:04:00,
2013-07-24 01:09:00,48.0,39.4,30.03,WSW,251,1.5,3.4,72,0.00,,,0.00,WSDL version 420,2013-07-23 15:09:00,
2013-07-24 01:14:00,48.4,39.5,30.00,West,276,2.9,4.9,71,0.00,,,0.00,WSDL version 420,2013-07-23 15:14:00,
2013-07-24 01:19:00,48.7,39.7,30.00,West,270,2.1,4.9,70,0.00,,,0.00,WSDL version 420,2013-07-23 15:19:00,
2013-07-24 01:24:00,-999.0,-99.9,30.00,WSW,245,0.8,3.1,-999,-99.99,,,-99.99,WSDL version 420,2013-07-23 15:24:00,
2013-07-24 01:29:00,48.2,38.9,30.03,WNW,286,1.6,3.1,70,0.00,,,0.00,WSDL version 420,2013-07-23 15:29:00,
2013-07-24 01:34:00,47.8,38.5,30.03,South,191,1.5,3.1,70,0.00,,,0.00,WSDL version 420,2013-07-23 15:34:00,
2013-07-24 01:39:00,47.5,38.5,30.03,ESE,119,0.7,2.5,71,0.00,,,0.00,WSDL version 420,2013-07-23 15:39:00,
2013-07-24 01:44:00,47.5,38.6,30.03,SW,218,0.2,2.9,71,0.00,,,0.00,WSDL version 420,2013-07-23 15:44:00,
2013-07-24 01:49:00,47.6,39.0,30.03,WNW,302,0.9,3.1,72,0.00,,,0.00,WSDL version 420,2013-07-23 15:49:00,
2013-07-24 01:54:00,48.2,39.7,30.03,West,281,1.7,3.6,72,-99.99,,,-99.99,WSDL version 420,2013-07-23 15:54:00,
2013-07-24 01:59:00,48.8,39.9,30.06,West,264,3.0,6.5,71,0.00,,,0.00,WSDL version 420,2013-07-23 15:59:00,
2013-07-24 02:04:00,49.7,40.2,30.06,WNW,293,2.1,6.5,69,-99.99,,,-99.99,WSDL version 420,2013-07-23 16:04:00,
2013-07-24 02:09:00,50.1,40.2,30.06,WNW,296,2.2,4.0,68,0.00,,,0.00,WSDL version 420,2013-07-23 16:09:00,
2013-07-24 02:14:00,50.3,40.2,30.00,NW,305,2.0,3.4,68,0.00,,,0.00,WSDL version 420,2013-07-23 16:14:00,
2013-07-24 02:19:00,50.7,40.0,30.00,WNW,293,3.5,7.8,66,-99.99,,,-99.99,WSDL version 420,2013-07-23 16:19:00,
2013-07-24 02:24:00,51.4,40.0,30.00,WNW,285,3.4,7.8,64,-99.99,,,-99.99,WSDL version 420,2013-07-23 16:24:00,
2013-07-24 02:29:00,51.8,39.8,30.06,West,280,2.7,5.8,63,0.00,,,0.00,WSDL version 420,2013-07-23 16:29:00,
2013-07-24 02:34:00,52.2,39.5,30.06,WNW,286,3.3,5.8,61,-99.99,,,-99.99,WSDL version 420,2013-07-23 16:34:00,
2013-07-24 02:39:00,52.6,39.1,30.06,NW,315,3.4,5.4,59,0.00,,,0.00,WSDL version 420,2013-07-23 16:39:00,
2013-07-24 02:44:00,52.8,39.0,30.03,NW,311,3.5,5.4,59,0.00,,,0.00,WSDL version 420,2013-07-23 16:44:00,
2013-07-24 02:49:00,53.0,38.6,30.03,West,276,4.4,8.7,57,-99.99,,,-99.99,WSDL version 420,2013-07-23 16:49:00,
2013-07-24 02:54:00,53.3,38.0,30.03,West,276,5.6,8.7,55,-99.99,,,-99.99,WSDL version 420,2013-07-23 16:54:00,
2013-07-24 02:59:00,53.6,37.6,30.03,WNW,296,3.4,7.4,54,0.00,,,0.00,WSDL version 420,2013-07-23 16:59:00,
2013-07-24 03:04:00,53.8,37.1,30.03,WNW,288,3.6,8.7,53,-99.99,,,-99.99,WSDL version 420,2013-07-23 17:04:00,
2013-07-24 03:09:00,54.0,37.1,30.03,West,262,4.8,8.7,53,-99.99,,,-99.99,WSDL version 420,2013-07-23 17:09:00,
2013-07-24 03:14:00,54.0,37.1,30.03,West,281,3.9,7.8,52,-99.99,,,-99.99,WSDL version 420,2013-07-23 17:14:00,
2013-07-24 03:19:00,54.1,37.0,30.03,WNW,298,4.4,7.6,52,-99.99,,,-99.99,WSDL version 420,2013-07-23 17:19:00,
2013-07-24 03:24:00,54.1,36.9,30.03,WNW,289,5.1,7.6,52,-99.99,,,-99.99,WSDL version 420,2013-07-23 17:24:00,
2013-07-24 03:29:00,54.1,37.0,30.03,WNW,284,2.8,7.6,52,-99.99,,,-99.99,WSDL version 420,2013-07-23 17:29:00,
2013-07-24 03:34:00,54.1,36.9,30.03,WNW,293,4.1,8.7,52,-99.99,,,-99.99,WSDL version 420,2013-07-23 17:34:00,
2013-07-24 03:39:00,54.3,36.9,30.03,NW,309,4.5,8.7,52,-99.99,,,-99.99,WSDL version 420,2013-07-23 17:39:00,
2013-07-24 03:44:00,54.3,36.9,30.03,West,280,3.5,7.8,51,-99.99,,,-99.99,WSDL version 420,2013-07-23 17:44:00,
2013-07-24 03:49:00,54.3,36.8,30.03,NW,315,3.9,7.4,51,-99.99,,,-99.99,WSDL version 420,2013-07-23 17:49:00,
2013-07-24 03:54:00,54.3,36.6,30.03,West,274,5.6,9.8,51,-99.99,,,-99.99,WSDL version 420,2013-07-23 17:54:00,
2013-07-24 03:59:00,54.3,36.6,30.00,West,281,4.4,9.8,51,-99.99,,,-99.99,WSDL version 420,2013-07-23 17:59:00,
2013-07-24 04:04:00,54.3,36.9,30.00,NW,304,3.1,7.4,51,-99.99,,,-99.99,WSDL version 420,2013-07-23 18:04:00,
2013-07-24 04:09:00,54.3,36.9,30.00,NW,319,4.8,7.4,52,0.00,,,0.00,WSDL version 420,2013-07-23 18:09:00,
2013-07-24 04:14:00,54.1,36.9,30.03,NW,309,4.1,7.4,52,-99.99,,,-99.99,WSDL version 420,2013-07-23 18:14:00,
2013-07-24 04:19:00,54.1,37.2,30.03,WNW,286,4.6,10.3,53,0.00,,,0.00,WSDL version 420,2013-07-23 18:19:00,
2013-07-24 04:24:00,54.0,37.2,30.03,WNW,289,4.0,11.9,53,-99.99,,,-99.99,WSDL version 420,2013-07-23 18:24:00,
2013-07-24 04:29:00,53.9,37.5,30.03,WNW,295,2.6,11.9,54,0.00,,,0.00,WSDL version 420,2013-07-23 18:29:00,
2013-07-24 04:34:00,53.6,37.4,30.03,NNW,345,3.1,6.3,54,0.00,,,0.00,WSDL version 420,2013-07-23 18:34:00,
2013-07-24 04:39:00,53.6,37.4,30.03,West,278,3.9,7.6,54,-99.99,,,-99.99,WSDL version 420,2013-07-23 18:39:00,
2013-07-24 04:44:00,53.6,37.4,30.03,WNW,285,4.6,9.6,54,-99.99,,,-99.99,WSDL version 420,2013-07-23 18:44:00,
2013-07-24 04:49:00,53.6,37.4,30.03,NNW,330,3.4,9.6,54,-99.99,,,-99.99,WSDL version 420,2013-07-23 18:49:00,
2013-07-24 04:54:00,53.8,37.5,30.03,NW,321,3.3,6.3,54,0.00,,,0.00,WSDL version 420,2013-07-23 18:54:00,
2013-07-24 05:01:00,53.8,37.5,30.03,WNW,293,4.3,6.5,54,-99.99,,,-99.99,WSDL version 420,2013-07-23 19:01:00,
2013-07-24 05:06:00,53.8,37.5,30.03,WNW,284,5.2,10.1,54,-99.99,,,-99.99,WSDL version 420,2013-07-23 19:06:00,
2013-07-24 05:11:00,53.7,38.2,30.03,WNW,289,5.2,10.1,56,-99.99,,,-99.99,WSDL version 420,2013-07-23 19:11:00,
2013-07-24 05:18:00,53.4,39.1,30.03,NW,304,3.8,7.6,58,-99.99,,,-99.99,WSDL version 420,2013-07-23 19:18:00,
2013-07-24 05:23:00,53.1,39.1,30.03,NW,315,5.1,6.7,59,-99.99,,,-99.99,WSDL version 420,2013-07-23 19:23:00,
2013-07-24 05:29:00,53.1,39.0,30.03,West,276,4.4,7.4,58,-99.99,,,-99.99,WSDL version 420,2013-07-23 19:29:00,
2013-07-24 05:36:00,53.3,38.5,30.03,SSW,210,5.8,12.1,57,-99.99,,,-99.99,WSDL version 420,2013-07-23 19:36:00,
2013-07-24 05:41:00,53.4,38.6,30.03,West,276,4.3,12.1,57,-99.99,,,-99.99,WSDL version 420,2013-07-23 19:41:00,
2013-07-24 05:51:00,53.4,38.6,30.03,NW,311,3.1,7.6,57,0.00,,,0.00,WSDL version 420,2013-07-23 19:51:00,
2013-07-24 05:56:00,53.4,38.7,30.03,WNW,300,2.4,9.8,57,0.00,,,0.00,WSDL version 420,2013-07-23 19:56:00,
2013-07-24 06:03:00,53.4,38.6,30.03,WNW,293,3.3,7.6,57,0.00,,,0.00,WSDL version 420,2013-07-23 20:03:00,
2013-07-24 06:08:00,53.4,38.8,30.03,NW,323,4.3,8.5,58,0.00,,,0.00,WSDL version 420,2013-07-23 20:08:00,
2013-07-24 06:13:00,53.5,38.8,30.06,NW,304,5.5,8.5,57,-99.99,,,-99.99,WSDL version 420,2013-07-23 20:13:00,
2013-07-24 06:20:00,53.5,39.2,30.06,North,354,2.9,7.6,58,0.00,,,0.00,WSDL version 420,2013-07-23 20:20:00,
2013-07-24 06:27:00,53.5,39.1,30.06,WNW,298,3.0,8.1,58,0.00,,,0.00,WSDL version 420,2013-07-23 20:27:00,
2013-07-24 06:32:00,53.6,39.2,30.06,NW,308,3.8,7.8,58,-99.99,,,-99.99,WSDL version 420,2013-07-23 20:32:00,
2013-07-24 06:37:00,53.6,39.2,30.06,WSW,244,4.9,9.8,58,0.00,,,0.00,WSDL version 420,2013-07-23 20:37:00,
2013-07-24 06:44:00,53.6,39.4,30.09,NW,307,4.8,11.9,59,-99.99,,,-99.99,WSDL version 420,2013-07-23 20:44:00,
2013-07-24 06:49:00,53.6,39.6,30.09,NNW,345,3.6,11.9,59,-99.99,,,-99.99,WSDL version 420,2013-07-23 20:49:00,
2013-07-24 06:54:00,53.6,39.2,30.09,North,8,3.4,7.6,58,-99.99,,,-99.99,WSDL version 420,2013-07-23 20:54:00,
2013-07-24 06:59:00,53.6,39.2,30.09,NW,323,3.6,8.1,58,-99.99,,,-99.99,WSDL version 420,2013-07-23 20:59:00,
2013-07-24 07:04:00,53.6,39.6,30.09,SW,233,3.7,8.1,59,-99.99,,,-99.99,WSDL version 420,2013-07-23 21:04:00,
2013-07-24 07:09:00,53.6,40.0,30.09,NW,325,3.7,7.8,60,0.00,,,0.00,WSDL version 420,2013-07-23 21:09:00,
2013-07-24 07:14:00,53.6,40.1,30.09,NW,307,4.8,7.8,60,-99.99,,,-99.99,WSDL version 420,2013-07-23 21:14:00,
2013-07-24 07:19:00,53.8,40.2,30.09,West,262,4.6,10.5,60,0.00,,,0.00,WSDL version 420,2013-07-23 21:19:00,
2013-07-24 07:24:00,53.8,40.7,30.09,WSW,248,3.9,12.8,61,0.00,,,0.00,WSDL version 420,2013-07-23 21:24:00,
2013-07-24 07:29:00,53.8,40.7,30.09,West,274,3.7,12.8,61,-99.99,,,-99.99,WSDL version 420,2013-07-23 21:29:00,
2013-07-24 07:34:00,54.0,40.8,30.09,WNW,301,6.1,9.2,61,0.00,,,0.00,WSDL version 420,2013-07-23 21:34:00,
2013-07-24 07:39:00,54.1,40.8,30.09,WNW,293,3.9,12.1,60,-99.99,,,-99.99,WSDL version 420,2013-07-23 21:39:00,
2013-07-24 07:44:00,54.1,40.6,30.12,NW,312,3.8,12.1,60,-99.99,,,-99.99,WSDL version 420,2013-07-23 21:44:00,
2013-07-24 07:49:00,54.4,40.7,30.12,NW,305,4.1,7.8,59,0.00,,,0.00,WSDL version 420,2013-07-23 21:49:00,
2013-07-24 07:54:00,54.5,40.5,30.12,West,270,4.7,7.8,59,-99.99,,,-99.99,WSDL version 420,2013-07-23 21:54:00,
2013-07-24 07:59:00,54.5,40.5,30.12,North,349,2.7,9.6,59,-99.99,,,-99.99,WSDL version 420,2013-07-23 21:59:00,
2013-07-24 08:09:00,54.5,40.6,30.12,WSW,238,4.7,7.6,60,-99.99,,,-99.99,WSDL version 420,2013-07-23 22:09:00,
2013-07-24 08:14:00,54.5,40.9,30.15,WNW,299,3.2,7.6,60,-99.99,,,-99.99,WSDL version 420,2013-07-23 22:14:00,
2013-07-24 08:19:00,54.4,41.2,30.15,NW,318,3.3,7.2,61,-99.99,,,-99.99,WSDL version 420,2013-07-23 22:19:00,
2013-07-24 08:24:00,54.5,41.3,30.15,NW,309,2.7,7.6,61,-99.99,,,-99.99,WSDL version 420,2013-07-23 22:24:00,
2013-07-24 08:29:00,54.5,41.7,30.15,WSW,253,4.1,8.1,63,-99.99,,,-99.99,WSDL version 420,2013-07-23 22:29:00,
2013-07-24 08:34:00,54.3,42.5,30.15,WNW,299,3.1,8.1,65,-99.99,,,-99.99,WSDL version 420,2013-07-23 22:34:00,
2013-07-24 08:41:00,55.4,43.6,30.15,WNW,287,3.7,8.7,64,-99.99,,,-99.99,WSDL version 420,2013-07-23 22:41:00,
2013-07-24 08:46:00,56.8,43.3,30.15,WNW,296,4.6,8.7,60,-99.99,,,-99.99,WSDL version 420,2013-07-23 22:46:00,
2013-07-24 08:51:00,56.7,41.8,30.15,West,273,4.9,7.8,57,-99.99,,,-99.99,WSDL version 420,2013-07-23 22:51:00,
2013-07-24 09:02:00,56.0,41.0,30.15,NW,311,4.7,10.7,57,0.00,,,0.00,WSDL version 420,2013-07-23 23:02:00,
2013-07-24 09:07:00,56.7,41.6,30.15,NW,310,4.0,7.4,57,0.00,,,0.00,WSDL version 420,2013-07-23 23:07:00,
2013-07-24 09:15:00,56.7,41.7,30.15,NNW,341,4.1,7.6,57,0.00,,,0.00,WSDL version 420,2013-07-23 23:15:00,
2013-07-24 09:20:00,56.7,41.6,30.15,NW,321,4.4,9.8,57,0.00,,,0.00,WSDL version 420,2013-07-23 23:20:00,
2013-07-24 09:25:00,56.8,41.8,30.15,North,8,4.0,9.8,57,0.00,,,0.00,WSDL version 420,2013-07-23 23:25:00,
2013-07-24 09:30:00,56.8,41.9,30.18,NW,305,3.1,7.2,58,-99.99,,,-99.99,WSDL version 420,2013-07-23 23:30:00,
2013-07-24 09:35:00,56.8,42.2,30.18,WNW,300,3.8,7.2,58,0.00,,,0.00,WSDL version 420,2013-07-23 23:35:00,
2013-07-24 09:40:00,56.9,42.3,30.18,West,278,3.0,7.2,58,0.00,,,0.00,WSDL version 420,2013-07-23 23:40:00,
2013-07-24 09:45:00,57.0,42.5,30.15,WNW,289,4.3,7.8,59,0.00,,,0.00,WSDL version 420,2013-07-23 23:45:00,
2013-07-24 09:50:00,57.1,42.5,30.15,North,11,3.8,7.8,58,0.00,,,0.00,WSDL version 420,2013-07-23 23:50:00,
2013-07-24 09:57:00,58.3,42.7,30.15,NW,312,4.2,7.6,56,0.00,,,0.00,WSDL version 420,2013-07-23 23:57:00,
2013-07-24 10:02:00,58.5,42.4,30.15,NW,321,4.2,7.6,55,0.00,,,0.00,WSDL version 420,2013-07-24 00:02:00,
2013-07-24 10:07:00,58.9,42.8,30.15,WNW,283,5.2,8.7,55,0.00,,,0.00,WSDL version 420,2013-07-24 00:07:00,
2013-07-24 10:12:00,60.1,42.8,30.15,West,276,6.1,11.0,52,-99.99,,,-99.99,WSDL version 420,2013-07-24 00:12:00,
2013-07-24 10:17:00,60.7,42.7,30.15,NNW,329,4.3,11.0,51,0.00,,,0.00,WSDL version 420,2013-07-24 00:17:00,
2013-07-24 10:22:00,62.0,43.0,30.15,NNW,340,4.5,9.6,49,0.00,,,0.00,WSDL version 420,2013-07-24 00:22:00,
2013-07-24 10:27:00,61.9,42.6,30.15,NW,321,3.9,9.6,49,0.00,,,0.00,WSDL version 420,2013-07-24 00:27:00,
2013-07-24 10:32:00,62.2,42.6,30.15,West,276,6.9,14.1,48,0.00,,,0.00,WSDL version 420,2013-07-24 00:32:00,
2013-07-24 10:37:00,61.5,42.1,30.15,West,278,4.5,14.1,49,0.00,,,0.00,WSDL version 420,2013-07-24 00:37:00,
2013-07-24 10:42:00,60.7,41.9,30.15,NNW,329,4.9,10.3,51,0.00,,,0.00,WSDL version 420,2013-07-24 00:42:00,
2013-07-24 10:47:00,60.8,42.3,30.15,WNW,297,4.0,10.3,50,0.00,,,0.00,WSDL version 420,2013-07-24 00:47:00,
2013-07-24 10:52:00,60.5,42.6,30.15,NW,323,4.3,7.4,52,0.00,,,0.00,WSDL version 420,2013-07-24 00:52:00,
2013-07-24 10:57:00,61.4,43.5,30.15,NW,307,4.5,9.8,52,0.00,,,0.00,WSDL version 420,2013-07-24 00:57:00,
2013-07-24 11:02:00,63.5,44.9,30.15,NW,309,4.6,12.3,49,0.00,,,0.00,WSDL version 420,2013-07-24 01:02:00,
2013-07-24 11:07:00,62.8,43.3,30.15,NW,318,5.9,15.2,49,0.00,,,0.00,WSDL version 420,2013-07-24 01:07:00,
2013-07-24 11:12:00,62.9,43.4,30.15,NNW,344,3.7,15.2,49,0.00,,,0.00,WSDL version 420,2013-07-24 01:12:00,
2013-07-24 11:17:00,62.9,42.8,30.15,NW,305,6.4,7.8,48,-99.99,,,-99.99,WSDL version 420,2013-07-24 01:17:00,
2013-07-24 11:22:00,62.4,42.5,30.15,SW,231,6.4,12.3,48,0.00,,,0.00,WSDL version 420,2013-07-24 01:22:00,
2013-07-24 11:27:00,62.9,42.9,30.15,NNW,331,4.8,12.3,48,0.00,,,0.00,WSDL version 420,2013-07-24 01:27:00,
2013-07-24 11:32:00,62.8,43.0,30.15,SSW,212,4.9,8.5,49,0.00,,,0.00,WSDL version 420,2013-07-24 01:32:00,
2013-07-24 11:37:00,63.5,43.5,30.15,SW,236,5.1,10.3,48,-99.99,,,-99.99,WSDL version 420,2013-07-24 01:37:00,
2013-07-24 11:42:00,63.6,43.5,30.15,West,280,5.0,10.5,48,0.00,,,0.00,WSDL version 420,2013-07-24 01:42:00,
2013-07-24 11:47:00,63.1,43.6,30.15,NW,315,4.0,10.5,49,0.00,,,0.00,WSDL version 420,2013-07-24 01:47:00,
2013-07-24 11:52:00,63.1,44.0,30.15,WNW,289,4.5,8.7,49,0.00,,,0.00,WSDL version 420,2013-07-24 01:52:00,
2013-07-24 11:57:00,63.1,43.9,30.15,NNW,328,6.1,9.8,50,-99.99,,,-99.99,WSDL version 420,2013-07-24 01:57:00,
2013-07-24 12:02:00,63.7,44.8,30.15,SSE,158,5.7,10.7,50,0.00,,,0.00,WSDL version 420,2013-07-24 02:02:00,
2013-07-24 12:07:00,64.7,45.6,30.15,North,349,3.4,10.7,50,0.00,,,0.00,WSDL version 420,2013-07-24 02:07:00,
2013-07-24 12:12:00,64.9,45.3,30.15,NW,304,4.5,7.6,49,0.00,,,0.00,WSDL version 420,2013-07-24 02:12:00,
2013-07-24 12:17:00,65.2,45.6,30.15,WSW,250,5.8,9.4,48,0.00,,,0.00,WSDL version 420,2013-07-24 02:17:00,
2013-07-24 12:24:00,65.1,45.4,30.15,WSW,250,4.9,9.4,49,0.00,,,0.00,WSDL version 420,2013-07-24 02:24:00,
2013-07-24 12:29:00,65.4,45.1,30.12,WNW,289,6.6,11.0,48,0.00,,,0.00,WSDL version 420,2013-07-24 02:29:00,
2013-07-24 12:34:00,64.9,44.7,30.12,WNW,284,4.3,11.0,48,0.00,,,0.00,WSDL version 420,2013-07-24 02:34:00,
2013-07-24 12:39:00,64.7,44.6,30.12,East,101,5.5,14.3,48,0.00,,,0.00,WSDL version 420,2013-07-24 02:39:00,
2013-07-24 12:44:00,65.6,45.3,30.15,WNW,303,3.7,14.3,48,0.00,,,0.00,WSDL version 420,2013-07-24 02:44:00,
2013-07-24 12:49:00,65.0,43.9,30.15,North,356,4.0,9.6,47,0.00,,,0.00,WSDL version 420,2013-07-24 02:49:00,
2013-07-24 12:54:00,64.4,43.9,30.15,NW,312,5.6,12.1,47,0.00,,,0.00,WSDL version 420,2013-07-24 02:54:00,
2013-07-24 12:59:00,65.4,44.7,30.12,WSW,253,6.4,12.1,47,0.00,,,0.00,WSDL version 420,2013-07-24 02:59:00,
2013-07-24 13:04:00,65.1,44.2,30.12,WNW,299,4.7,10.1,47,0.00,,,0.00,WSDL version 420,2013-07-24 03:04:00,
2013-07-24 13:09:00,64.4,44.0,30.12,NNW,338,3.0,10.1,48,0.00,,,0.00,WSDL version 420,2013-07-24 03:09:00,
2013-07-24 13:14:00,64.4,44.3,30.15,WNW,286,5.7,10.3,48,0.00,,,0.00,WSDL version 420,2013-07-24 03:14:00,
2013-07-24 13:19:00,64.7,44.6,30.15,North,357,5.5,10.3,48,0.00,,,0.00,WSDL version 420,2013-07-24 03:19:00,
2013-07-24 13:24:00,65.7,44.9,30.15,NNW,329,4.4,10.5,47,0.00,,,0.00,WSDL version 420,2013-07-24 03:24:00,
2013-07-24 13:29:00,65.8,45.0,30.15,SSE,162,3.8,10.5,47,0.00,,,0.00,WSDL version 420,2013-07-24 03:29:00,
2013-07-24 13:34:00,65.5,45.2,30.15,NW,315,3.8,7.8,48,0.00,,,0.00,WSDL version 420,2013-07-24 03:34:00,
2013-07-24 13:41:00,64.2,44.5,30.15,West,266,5.1,8.5,49,0.00,,,0.00,WSDL version 420,2013-07-24 03:41:00,
2013-07-24 13:46:00,63.4,44.5,30.15,WNW,288,6.0,10.5,50,0.00,,,0.00,WSDL version 420,2013-07-24 03:46:00,
2013-07-24 13:51:00,63.3,44.9,30.15,WNW,289,5.6,10.5,51,0.00,,,0.00,WSDL version 420,2013-07-24 03:51:00,
2013-07-24 13:56:00,63.1,44.5,30.15,West,278,4.2,9.4,51,0.00,,,0.00,WSDL version 420,2013-07-24 03:56:00,
2013-07-24 14:01:00,62.2,44.2,30.15,NW,321,5.7,9.4,52,0.00,,,0.00,WSDL version 420,2013-07-24 04:01:00,
2013-07-24 14:06:00,61.6,44.0,30.15,WNW,293,5.2,13.2,53,0.00,,,0.00,WSDL version 420,2013-07-24 04:06:00,
2013-07-24 14:11:00,61.0,43.5,30.15,WNW,296,5.0,13.2,53,-99.99,,,-99.99,WSDL version 420,2013-07-24 04:11:00,
2013-07-24 14:16:00,60.6,43.7,30.15,NNW,332,4.7,9.6,54,0.00,,,0.00,WSDL version 420,2013-07-24 04:16:00,
2013-07-24 14:21:00,60.3,44.0,30.15,WNW,302,4.4,7.2,55,0.00,,,0.00,WSDL version 420,2013-07-24 04:21:00,
2013-07-24 14:26:00,60.3,44.0,30.15,NW,315,5.0,7.4,55,0.00,,,0.00,WSDL version 420,2013-07-24 04:26:00,
2013-07-24 14:31:00,61.1,44.8,30.18,NNW,329,4.2,7.4,55,0.00,,,0.00,WSDL version 420,2013-07-24 04:31:00,
2013-07-24 14:36:00,61.0,44.8,30.18,West,280,5.1,13.6,55,0.00,,,0.00,WSDL version 420,2013-07-24 04:36:00,
2013-07-24 14:41:00,61.0,44.8,30.18,NNE,26,4.6,13.6,56,0.00,,,0.00,WSDL version 420,2013-07-24 04:41:00,
2013-07-24 14:46:00,60.7,45.0,30.15,NNW,346,3.4,11.9,56,-99.99,,,-99.99,WSDL version 420,2013-07-24 04:46:00,
2013-07-24 14:51:00,60.7,45.0,30.15,NW,305,4.4,8.7,56,0.00,,,0.00,WSDL version 420,2013-07-24 04:51:00,
2013-07-24 14:56:00,60.7,45.0,30.15,NE,41,3.2,8.7,56,0.00,,,0.00,WSDL version 420,2013-07-24 04:56:00,
2013-07-24 15:01:00,60.7,44.8,30.12,NNW,343,4.4,10.5,56,0.00,,,0.00,WSDL version 420,2013-07-24 05:01:00,
2013-07-24 15:06:00,60.6,44.4,30.12,WSW,250,5.6,11.0,55,-99.99,,,-99.99,WSDL version 420,2013-07-24 05:06:00,
2013-07-24 15:11:00,60.6,44.3,30.12,NW,321,4.6,11.0,55,0.00,,,0.00,WSDL version 420,2013-07-24 05:11:00,
2013-07-24 15:16:00,60.6,44.4,30.15,NNW,331,3.7,6.5,55,0.00,,,0.00,WSDL version 420,2013-07-24 05:16:00,
2013-07-24 15:21:00,60.9,44.6,30.15,West,276,4.1,7.8,55,0.00,,,0.00,WSDL version 420,2013-07-24 05:21:00,
2013-07-24 15:26:00,61.1,44.7,30.15,SW,233,4.7,9.8,54,0.00,,,0.00,WSDL version 420,2013-07-24 05:26:00,
2013-07-24 15:31:00,61.0,44.6,30.18,NW,321,3.6,9.8,54,0.00,,,0.00,WSDL version 420,2013-07-24 05:31:00,
2013-07-24 15:36:00,60.8,44.2,30.18,WNW,286,4.4,6.3,55,0.00,,,0.00,WSDL version 420,2013-07-24 05:36:00,
2013-07-24 15:41:00,60.5,44.0,30.18,NNE,25,4.1,7.8,54,0.00,,,0.00,WSDL version 420,2013-07-24 05:41:00,
2013-07-24 15:46:00,60.2,43.8,30.15,West,267,3.6,7.8,55,0.00,,,0.00,WSDL version 420,2013-07-24 05:46:00,
2013-07-24 15:51:00,60.0,43.8,30.15,NW,321,3.1,8.5,55,0.00,,,0.00,WSDL version 420,2013-07-24 05:51:00,
2013-07-24 15:56:00,59.8,43.9,30.15,SW,214,6.3,11.2,56,0.00,,,0.00,WSDL version 420,2013-07-24 05:56:00,
2013-07-24 16:01:00,59.9,44.2,30.15,NNW,344,3.4,11.2,56,0.00,,,0.00,WSDL version 420,2013-07-24 06:01:00,
2013-07-24 16:06:00,59.9,44.2,30.15,WNW,286,2.9,6.0,56,0.00,,,0.00,WSDL version 420,2013-07-24 06:06:00,
2013-07-24 16:11:00,59.8,44.1,30.15,NW,318,3.5,6.0,56,0.00,,,0.00,WSDL version 420,2013-07-24 06:11:00,
2013-07-24 16:16:00,59.5,43.8,30.12,WNW,301,3.7,8.5,56,0.00,,,0.00,WSDL version 420,2013-07-24 06:16:00,
2013-07-24 16:26:00,59.3,43.9,30.12,WNW,288,4.0,5.8,57,0.00,,,0.00,WSDL version 420,2013-07-24 06:26:00,
2013-07-24 16:31:00,59.1,44.1,30.15,NW,305,3.2,7.6,57,0.00,,,0.00,WSDL version 420,2013-07-24 06:31:00,
2013-07-24 16:36:00,58.9,44.0,30.15,West,281,3.2,7.6,58,-99.99,,,-99.99,WSDL version 420,2013-07-24 06:36:00,
2013-07-24 16:46:00,58.6,43.9,30.18,NNW,328,2.8,4.7,58,0.00,,,0.00,WSDL version 420,2013-07-24 06:46:00,
2013-07-24 16:56:00,58.4,43.4,30.18,NNW,338,2.8,5.6,57,0.00,,,0.00,WSDL version 420,2013-07-24 06:56:00,
2013-07-24 17:06:00,58.1,43.1,30.18,NW,305,3.6,5.4,58,0.00,,,0.00,WSDL version 420,2013-07-24 07:06:00,
2013-07-24 17:11:00,58.0,43.3,30.18,NW,321,2.7,6.0,58,0.00,,,0.00,WSDL version 420,2013-07-24 07:11:00,
2013-07-24 17:18:00,57.8,43.2,30.18,West,267,3.5,6.0,58,0.00,,,0.00,WSDL version 420,2013-07-24 07:18:00,
2013-07-24 17:23:00,57.6,43.0,30.18,WNW,295,2.6,5.4,58,0.00,,,0.00,WSDL version 420,2013-07-24 07:23:00,
2013-07-24 17:28:00,57.3,43.0,30.18,WNW,286,2.4,3.8,59,0.00,,,0.00,WSDL version 420,2013-07-24 07:28:00,
2013-07-24 17:33:00,56.9,42.8,30.21,WNW,298,0.7,3.8,59,0.00,,,0.00,WSDL version 420,2013-07-24 07:33:00,
2013-07-24 17:38:00,56.7,42.9,30.21,WNW,285,0.0,2.5,60,0.00,,,0.00,WSDL version 420,2013-07-24 07:38:00,
2013-07-24 17:43:00,56.4,43.3,30.21,NNE,16,0.9,2.9,61,0.00,,,0.00,WSDL version 420,2013-07-24 07:43:00,
2013-07-24 17:48:00,-999.0,-99.9,30.21,NW,321,1.1,4.3,-999,0.00,,,0.00,WSDL version 420,2013-07-24 07:48:00,
2013-07-24 17:53:00,56.2,43.6,30.21,NW,315,1.9,4.3,63,0.00,,,0.00,WSDL version 420,2013-07-24 07:53:00,
2013-07-24 17:58:00,56.2,43.7,30.24,WNW,302,1.9,3.1,63,-99.99,,,-99.99,WSDL version 420,2013-07-24 07:58:00,
2013-07-24 18:03:00,56.1,44.0,30.24,West,267,1.2,3.1,64,0.00,,,0.00,WSDL version 420,2013-07-24 08:03:00,
2013-07-24 18:08:00,56.1,44.3,30.24,NNW,335,2.1,4.0,65,0.00,,,0.00,WSDL version 420,2013-07-24 08:08:00,
2013-07-24 18:13:00,56.1,44.4,30.24,West,273,1.9,4.0,64,0.00,,,0.00,WSDL version 420,2013-07-24 08:13:00,
2013-07-24 18:18:00,56.1,44.1,30.18,NNW,343,0.4,3.8,64,0.00,,,0.00,WSDL version 420,2013-07-24 08:18:00,
2013-07-24 18:28:00,55.0,43.8,30.18,NW,312,1.1,2.9,66,0.00,,,0.00,WSDL version 420,2013-07-24 08:28:00,
2013-07-24 18:33:00,54.9,43.7,30.18,NW,321,1.2,3.6,66,0.00,,,0.00,WSDL version 420,2013-07-24 08:33:00,
2013-07-24 18:38:00,54.8,44.1,30.18,West,262,1.2,3.6,67,0.00,,,0.00,WSDL version 420,2013-07-24 08:38:00,
2013-07-24 18:43:00,54.7,44.1,30.18,WNW,293,1.1,4.0,67,0.00,,,0.00,WSDL version 420,2013-07-24 08:43:00,
2013-07-24 18:48:00,55.0,44.4,30.21,NW,309,2.4,4.5,67,0.00,,,0.00,WSDL version 420,2013-07-24 08:48:00,
2013-07-24 18:53:00,55.2,44.3,30.21,North,350,1.5,4.5,66,0.00,,,0.00,WSDL version 420,2013-07-24 08:53:00,
2013-07-24 19:03:00,55.0,43.8,30.21,NW,311,1.6,3.1,66,0.00,,,0.00,WSDL version 420,2013-07-24 09:03:00,
2013-07-24 19:08:00,55.4,43.9,30.21,NW,310,3.1,4.3,65,0.00,,,0.00,WSDL version 420,2013-07-24 09:08:00,
2013-07-24 19:13:00,55.8,43.8,30.21,WNW,293,3.0,4.3,64,0.00,,,0.00,WSDL version 420,2013-07-24 09:13:00,
2013-07-24 19:18:00,55.9,43.5,30.21,WSW,253,1.6,4.3,63,0.00,,,0.00,WSDL version 420,2013-07-24 09:18:00,
2013-07-24 19:23:00,56.0,43.5,30.21,North,349,2.3,4.0,62,0.00,,,0.00,WSDL version 420,2013-07-24 09:23:00,
2013-07-24 19:28:00,56.2,43.4,30.21,WNW,283,2.5,4.3,62,0.00,,,0.00,WSDL version 420,2013-07-24 09:28:00,
2013-07-24 19:33:00,-999.0,-99.9,30.21,WNW,293,1.8,4.3,-999,0.00,,,0.00,WSDL version 420,2013-07-24 09:33:00,
2013-07-24 19:38:00,56.1,43.7,30.21,West,276,0.9,4.3,63,0.00,,,0.00,WSDL version 420,2013-07-24 09:38:00,
2013-07-24 19:43:00,55.9,43.5,30.21,WNW,289,1.0,2.7,63,0.00,,,0.00,WSDL version 420,2013-07-24 09:43:00,
2013-07-24 19:48:00,55.9,43.5,30.21,WNW,296,1.2,5.4,63,0.00,,,0.00,WSDL version 420,2013-07-24 09:48:00,
2013-07-24 19:53:00,55.9,43.5,30.21,NW,315,1.9,5.4,63,0.00,,,0.00,WSDL version 420,2013-07-24 09:53:00,
2013-07-24 19:58:00,55.9,43.1,30.21,WNW,296,3.2,5.4,62,0.00,,,0.00,WSDL version 420,2013-07-24 09:58:00,
2013-07-24 20:03:00,55.9,42.7,30.21,West,264,2.4,5.4,61,0.00,,,0.00,WSDL version 420,2013-07-24 10:03:00,
2013-07-24 20:08:00,55.8,42.8,30.21,WSW,256,1.8,5.4,62,0.00,,,0.00,WSDL version 420,2013-07-24 10:08:00,
2013-07-24 20:13:00,55.2,42.9,30.24,ESE,113,0.4,3.4,63,0.00,,,0.00,WSDL version 420,2013-07-24 10:13:00,
2013-07-24 20:18:00,54.8,42.6,30.24,West,276,1.0,2.9,64,0.00,,,0.00,WSDL version 420,2013-07-24 10:18:00,
2013-07-24 20:23:00,54.5,42.6,30.24,SW,218,2.1,4.0,64,0.00,,,0.00,WSDL version 420,2013-07-24 10:23:00,
2013-07-24 20:28:00,54.1,42.6,30.24,West,273,0.7,4.3,65,0.00,,,0.00,WSDL version 420,2013-07-24 10:28:00,
2013-07-24 20:33:00,53.7,42.2,30.24,WNW,300,0.9,4.3,65,0.00,,,0.00,WSDL version 420,2013-07-24 10:33:00,
2013-07-24 20:38:00,53.3,42.3,30.24,WNW,296,0.8,3.4,66,0.00,,,0.00,WSDL version 420,2013-07-24 10:38:00,
2013-07-24 20:43:00,53.0,42.1,30.24,West,273,1.9,3.6,67,0.00,,,0.00,WSDL version 420,2013-07-24 10:43:00,
2013-07-24 20:48:00,52.9,42.2,30.24,South,176,0.5,3.6,67,0.00,,,0.00,WSDL version 420,2013-07-24 10:48:00,
2013-07-24 20:53:00,52.6,42.0,30.24,North,11,0.0,3.1,67,0.00,,,0.00,WSDL version 420,2013-07-24 10:53:00,
2013-07-24 20:58:00,52.2,41.7,30.24,WNW,295,0.2,2.9,68,0.00,,,0.00,WSDL version 420,2013-07-24 10:58:00,
2013-07-24 21:03:00,51.8,41.7,30.24,ENE,65,0.6,2.0,69,0.00,,,0.00,WSDL version 420,2013-07-24 11:03:00,
2013-07-24 21:08:00,51.4,41.6,30.24,West,264,0.1,2.0,69,0.00,,,0.00,WSDL version 420,2013-07-24 11:08:00,
2013-07-24 21:13:00,51.0,41.2,30.24,SSE,160,0.0,2.0,69,0.00,,,0.00,WSDL version 420,2013-07-24 11:13:00,
2013-07-24 21:18:00,50.6,40.9,30.24,SE,141,0.6,2.0,70,0.00,,,0.00,WSDL version 420,2013-07-24 11:18:00,
2013-07-24 21:23:00,50.0,40.7,30.24,ENE,64,0.0,2.0,71,0.00,,,0.00,WSDL version 420,2013-07-24 11:23:00,
2013-07-24 21:28:00,49.6,40.7,30.24,SSE,150,0.8,2.2,71,0.00,,,0.00,WSDL version 420,2013-07-24 11:28:00,
2013-07-24 21:33:00,49.4,40.8,30.21,SSE,161,0.0,2.2,72,0.00,,,0.00,WSDL version 420,2013-07-24 11:33:00,
2013-07-24 21:38:00,49.0,40.6,30.21,South,188,0.3,2.0,73,0.00,,,0.00,WSDL version 420,2013-07-24 11:38:00,
2013-07-24 21:43:00,48.8,40.5,30.21,SSE,167,0.0,1.6,73,0.00,,,0.00,WSDL version 420,2013-07-24 11:43:00,
2013-07-24 21:48:00,48.6,40.7,30.21,SE,138,0.1,2.5,74,0.00,,,0.00,WSDL version 420,2013-07-24 11:48:00,
2013-07-24 21:53:00,48.3,40.4,30.21,SE,124,0.0,2.5,74,0.00,,,0.00,WSDL version 420,2013-07-24 11:53:00,
2013-07-24 21:58:00,48.2,40.8,30.21,SE,135,1.0,2.2,76,0.00,,,0.00,WSDL version 420,2013-07-24 11:58:00,
2013-07-24 22:03:00,48.2,41.0,30.21,SE,135,0.2,2.2,76,0.00,,,0.00,WSDL version 420,2013-07-24 12:03:00,
2013-07-24 22:08:00,48.0,41.4,30.21,SSW,196,0.0,2.2,78,0.00,,,0.00,WSDL version 420,2013-07-24 12:08:00,
2013-07-24 22:13:00,47.9,41.6,30.21,SSE,160,0.7,2.5,79,0.00,,,0.00,WSDL version 420,2013-07-24 12:13:00,
2013-07-24 22:18:00,47.7,41.5,30.21,SSE,149,0.0,2.5,79,0.00,,,0.00,WSDL version 420,2013-07-24 12:18:00,
2013-07-24 22:23:00,47.5,41.7,30.21,SW,231,0.4,2.5,80,0.00,,,0.00,WSDL version 420,2013-07-24 12:23:00,
2013-07-24 22:28:00,47.5,41.6,30.21,South,170,0.0,2.5,80,0.00,,,0.00,WSDL version 420,2013-07-24 12:28:00,
2013-07-24 22:33:00,47.4,41.5,30.21,SE,125,0.0,1.6,80,-99.99,,,-99.99,WSDL version 420,2013-07-24 12:33:00,
2013-07-24 22:38:00,47.2,41.8,30.21,SE,140,0.0,2.0,81,0.00,,,0.00,WSDL version 420,2013-07-24 12:38:00,
2013-07-24 22:43:00,47.0,41.3,30.21,SSE,149,0.0,2.0,81,0.00,,,0.00,WSDL version 420,2013-07-24 12:43:00,
2013-07-24 22:48:00,46.9,41.4,30.21,SE,128,0.6,1.6,81,0.00,,,0.00,WSDL version 420,2013-07-24 12:48:00,
2013-07-24 22:53:00,46.7,41.6,30.21,South,180,0.0,2.0,83,0.00,,,0.00,WSDL version 420,2013-07-24 12:53:00,
2013-07-24 22:58:00,46.5,41.8,30.21,SE,124,0.0,2.0,83,0.00,,,0.00,WSDL version 420,2013-07-24 12:58:00,
2013-07-24 23:03:00,46.5,41.7,30.21,SE,135,0.3,1.6,83,0.00,,,0.00,WSDL version 420,2013-07-24 13:03:00,
2013-07-24 23:08:00,46.3,41.9,30.21,SE,139,0.0,1.6,86,0.00,,,0.00,WSDL version 420,2013-07-24 13:08:00,
2013-07-24 23:13:00,46.2,42.1,30.21,SSE,161,0.0,1.1,86,0.00,,,0.00,WSDL version 420,2013-07-24 13:13:00,
2013-07-24 23:18:00,46.1,42.0,30.21,SSE,154,0.0,1.3,86,0.00,,,0.00,WSDL version 420,2013-07-24 13:18:00,
2013-07-24 23:23:00,45.9,42.2,30.21,SE,143,0.0,1.3,87,0.00,,,0.00,WSDL version 420,2013-07-24 13:23:00,
2013-07-24 23:28:00,45.9,42.1,30.21,SE,138,0.3,1.6,87,0.00,,,0.00,WSDL version 420,2013-07-24 13:28:00,
2013-07-24 23:38:00,45.9,42.4,30.21,SE,129,0.0,0.0,88,0.00,,,0.00,WSDL version 420,2013-07-24 13:38:00,
2013-07-24 23:43:00,45.7,42.6,30.21,SSE,158,0.0,0.9,89,0.00,,,0.00,WSDL version 420,2013-07-24 13:43:00,
2013-07-24 23:48:00,45.5,42.6,30.21,SE,139,0.0,0.9,90,0.00,,,0.00,WSDL version 420,2013-07-24 13:48:00,
2013-07-24 23:53:00,45.5,42.7,30.21,SE,141,0.1,2.2,90,0.00,,,0.00,WSDL version 420,2013-07-24 13:53:00,
2013-07-24 23:58:00,45.5,43.1,30.21,SSE,161,0.0,2.2,91,0.00,,,0.00,WSDL version 420,2013-07-24 13:58:00,